Strona główna
METAR-TAF:

METAR-TAF

Lotnisko :

Port lotniczy Mehamn

Gamvik, Norwegia

Szerokość geograficzna: 71-02N, Długość geograficzna: 027-50E, wysokość: 1 m

Aktualna obserwacja pogody

Raport powstał 3 godziny i 6 minut temu, godzina 23:50 UTC
Wiatr 10 kt od północny zachód
Temperatura -2°C
Wilgotność 69%
Ciśnienie 1019 hPa
Widzialność 10 km lub więcej
Przerywane chmury na wysokości 3800 ft

METAR: ENMH 052350Z 31010KT 9999 BKN038 M02/M07 Q1019

czas: 04:56 (02:56 UTC)


TAF: brakujący

Obserwacja i prognoza pogody dla ponad 4000 lotnisk (raport METAR i TAF).

Dostępne stacje oznaczono żółtymi i czerwonymi punktami na mapie.

Najedź kursorem aby zobaczyć nazwę stacji.

Kliknij aby zobaczyć obserwacje i prognozy pogody.

Aby zmienić mapę: kliknij na zielony przycisk z czarnym krzyżykiem, aby powiększyć; na zielony przycisk z myślnikiem, aby pomniejszyć; na zielone strzałki, aby przejść do map sąsiednich.


METAR-TAF: